createdAt,value
2022-11-17T00:00:21.982Z,7.18
2022-11-17T00:05:16.541Z,6.50
2022-11-17T00:07:45.188Z,6.55
2022-11-17T00:10:13.368Z,6.85
2022-11-17T00:12:58.712Z,6.55
2022-11-17T00:15:25.485Z,6.05
2022-11-17T00:20:59.976Z,6.35
2022-11-17T00:23:47.362Z,5.95
2022-11-17T00:26:19.401Z,6.50
2022-11-17T00:28:46.275Z,5.75
2022-11-17T00:31:33.419Z,6.07
2022-11-17T00:34:06.699Z,5.63
2022-11-17T00:36:34.571Z,5.60
2022-11-17T00:39:01.145Z,5.97
2022-11-17T00:41:28.862Z,5.28
2022-11-17T00:43:55.847Z,7.40
2022-11-17T00:46:23.026Z,6.10
2022-11-17T00:48:49.638Z,5.97
2022-11-17T00:51:16.191Z,5.72
2022-11-17T00:53:42.838Z,5.43
2022-11-17T00:56:09.414Z,5.32
2022-11-17T00:58:36.633Z,4.75
2022-11-17T01:01:03.854Z,5.80
2022-11-17T01:03:30.730Z,5.85
2022-11-17T01:06:10.723Z,5.88
2022-11-17T01:08:37.697Z,5.97
2022-11-17T01:11:10.360Z,6.45
2022-11-17T01:13:38.177Z,5.20
2022-11-17T01:16:07.996Z,5.43
2022-11-17T01:18:35.494Z,6.30
2022-11-17T01:21:10.586Z,6.15
2022-11-17T01:23:39.218Z,5.75
2022-11-17T01:26:14.311Z,5.63
2022-11-17T01:28:42.281Z,7.38
2022-11-17T01:31:13.145Z,6.75
2022-11-17T01:33:40.810Z,7.15
2022-11-17T01:36:12.685Z,6.75
2022-11-17T01:38:39.447Z,7.20
2022-11-17T01:43:39.690Z,7.38
2022-11-17T01:46:12.547Z,7.10
2022-11-17T01:48:39.270Z,6.93
2022-11-17T01:53:35.613Z,6.57
2022-11-17T01:56:11.807Z,6.80
2022-11-17T01:58:45.770Z,7.45
2022-11-17T02:01:12.642Z,7.15
2022-11-17T02:03:40.059Z,7.90
2022-11-17T02:06:11.682Z,8.10
2022-11-17T02:08:41.190Z,7.82
2022-11-17T02:11:16.314Z,7.80
2022-11-17T02:13:43.017Z,8.60
2022-11-17T02:16:13.761Z,7.78
2022-11-17T02:18:42.069Z,7.45
2022-11-17T02:21:22.905Z,7.40
2022-11-17T02:24:01.699Z,7.32
2022-11-17T02:26:40.193Z,7.22
2022-11-17T02:29:33.912Z,6.85
2022-11-17T02:32:22.146Z,6.40
2022-11-17T02:35:00.392Z,7.50
2022-11-17T02:37:50.521Z,6.55
2022-11-17T02:40:27.401Z,7.72
2022-11-17T02:43:29.833Z,6.65
2022-11-17T02:46:25.913Z,7.05
2022-11-17T02:48:58.353Z,7.13
2022-11-17T02:51:25.410Z,7.05
2022-11-17T02:53:56.178Z,7.22
2022-11-17T02:56:23.206Z,7.18
2022-11-17T02:58:53.433Z,7.03
2022-11-17T03:01:37.456Z,7.20
2022-11-17T03:04:04.091Z,6.63
2022-11-17T03:06:49.782Z,6.70
2022-11-17T03:09:30.649Z,7.22
2022-11-17T03:12:06.717Z,7.10
2022-11-17T03:14:52.491Z,6.32
2022-11-17T03:17:25.954Z,6.47
2022-11-17T03:20:08.393Z,7.03
2022-11-17T03:22:50.838Z,6.45
2022-11-17T03:25:20.729Z,6.47
2022-11-17T03:27:51.985Z,6.45
2022-11-17T03:30:19.401Z,5.70
2022-11-17T03:32:51.557Z,6.60
2022-11-17T03:35:23.209Z,6.22
2022-11-17T03:37:54.502Z,5.72
2022-11-17T03:40:27.950Z,5.82
2022-11-17T03:42:59.329Z,5.78
2022-11-17T03:45:40.085Z,5.90
2022-11-17T03:48:15.917Z,5.68
2022-11-17T03:51:15.731Z,5.47
2022-11-17T03:53:42.738Z,5.40
2022-11-17T03:56:24.185Z,5.65
2022-11-17T03:59:17.704Z,5.70
2022-11-17T04:01:44.456Z,5.00
2022-11-17T04:06:43.273Z,5.10
2022-11-17T04:09:10.011Z,4.85
2022-11-17T04:14:40.481Z,4.95
2022-11-17T04:17:07.137Z,4.80
2022-11-17T04:19:33.741Z,5.30
2022-11-17T04:22:00.306Z,4.57
2022-11-17T04:24:26.897Z,4.63
2022-11-17T04:27:12.067Z,5.53
2022-11-17T04:29:38.654Z,4.53
2022-11-17T04:32:05.206Z,4.85
2022-11-17T04:34:31.833Z,4.78
2022-11-17T04:36:58.454Z,4.70
2022-11-17T04:39:25.045Z,5.18
2022-11-17T04:41:54.586Z,4.53
2022-11-17T04:44:29.986Z,4.55
2022-11-17T04:46:57.283Z,4.47
2022-11-17T04:49:25.345Z,4.50
2022-11-17T04:51:53.549Z,4.20
2022-11-17T04:54:23.179Z,5.10
2022-11-17T04:56:50.123Z,5.25
2022-11-17T04:59:16.963Z,4.43
2022-11-17T05:01:43.610Z,4.15
2022-11-17T05:04:12.243Z,4.57
2022-11-17T05:06:44.370Z,4.53
2022-11-17T05:09:13.408Z,4.63
2022-11-17T05:11:58.723Z,4.38
2022-11-17T05:14:27.003Z,3.97
2022-11-17T05:17:11.031Z,4.55
2022-11-17T05:19:40.809Z,5.22
2022-11-17T05:22:28.132Z,4.07
2022-11-17T05:24:54.944Z,4.47
2022-11-17T05:29:49.673Z,4.78
2022-11-17T05:32:16.556Z,5.20
2022-11-17T05:34:43.264Z,4.30
2022-11-17T05:39:36.521Z,7.70
2022-11-17T05:42:03.754Z,10.50
2022-11-17T05:44:30.390Z,6.50
2022-11-17T05:46:57.205Z,5.63
2022-11-17T05:51:52.906Z,5.03
2022-11-17T05:54:19.982Z,4.75
2022-11-17T05:59:28.085Z,5.10
2022-11-17T06:02:11.466Z,5.35
2022-11-17T06:04:39.003Z,5.47
2022-11-17T06:07:05.856Z,5.47
2022-11-17T06:14:34.188Z,5.88
2022-11-17T06:17:07.105Z,5.93
2022-11-17T06:19:42.443Z,5.35
2022-11-17T06:22:12.752Z,5.82
2022-11-17T06:24:43.025Z,5.80
2022-11-17T06:27:12.133Z,5.68
2022-11-17T06:29:44.036Z,6.50
2022-11-17T06:32:13.975Z,5.30
2022-11-17T06:34:41.996Z,5.70
2022-11-17T06:37:08.586Z,5.30
2022-11-17T06:39:35.205Z,5.70
2022-11-17T06:42:01.810Z,6.10
2022-11-17T06:44:28.365Z,5.53
2022-11-17T06:46:54.920Z,5.70
2022-11-17T06:49:21.530Z,6.03
2022-11-17T06:51:48.123Z,5.45
2022-11-17T06:54:15.094Z,5.95
2022-11-17T06:56:42.223Z,6.15
2022-11-17T06:59:08.908Z,5.50
2022-11-17T07:04:01.994Z,6.10
2022-11-17T07:06:28.827Z,5.97
2022-11-17T07:08:55.464Z,5.75
2022-11-17T07:11:22.056Z,6.00
2022-11-17T07:13:48.745Z,6.63
2022-11-17T07:16:23.237Z,5.78
2022-11-17T07:18:52.145Z,5.95
2022-11-17T07:21:18.852Z,6.20
2022-11-17T07:26:13.197Z,5.32
2022-11-17T07:28:39.920Z,5.50
2022-11-17T07:33:34.545Z,4.63
2022-11-17T07:36:06.204Z,5.47
2022-11-17T07:38:34.902Z,5.53
2022-11-17T07:41:02.313Z,5.40
2022-11-17T07:43:29.081Z,5.40
2022-11-17T07:48:22.948Z,5.13
2022-11-17T07:50:49.476Z,5.10
2022-11-17T07:53:16.230Z,5.03
2022-11-17T07:58:09.345Z,4.97
2022-11-17T08:00:36.817Z,6.68
2022-11-17T08:03:04.532Z,5.55
2022-11-17T08:05:37.067Z,6.60
2022-11-17T08:08:07.994Z,6.35
2022-11-17T08:10:34.761Z,5.45
2022-11-17T08:15:28.472Z,5.75
2022-11-17T08:17:57.878Z,5.50
2022-11-17T08:20:25.885Z,6.70
2022-11-17T08:22:53.265Z,5.28
2022-11-17T08:25:22.049Z,6.03
2022-11-17T08:27:52.069Z,5.22
2022-11-17T08:30:20.536Z,4.95
2022-11-17T08:32:52.303Z,5.07
2022-11-17T08:35:21.640Z,5.10
2022-11-17T08:37:48.181Z,5.15
2022-11-17T08:40:15.344Z,5.40
2022-11-17T08:42:41.978Z,5.30
2022-11-17T08:45:09.277Z,5.88
2022-11-17T08:47:35.873Z,5.85
2022-11-17T08:50:02.693Z,6.22
2022-11-17T08:54:55.925Z,5.88
2022-11-17T08:59:49.778Z,5.60
2022-11-17T09:02:17.032Z,5.07
2022-11-17T09:04:46.181Z,5.43
2022-11-17T09:07:12.869Z,5.40
2022-11-17T09:09:39.634Z,5.55
2022-11-17T09:14:32.799Z,8.07
2022-11-17T09:16:59.574Z,7.20
2022-11-17T09:19:26.343Z,6.38
2022-11-17T09:24:19.321Z,6.20
2022-11-17T09:26:45.891Z,6.53
2022-11-17T09:29:12.465Z,6.00
2022-11-17T09:31:39.122Z,6.03
2022-11-17T09:34:06.367Z,6.22
2022-11-17T09:36:33.748Z,5.85
2022-11-17T09:39:01.060Z,5.60
2022-11-17T09:41:34.554Z,5.50
2022-11-17T09:44:15.385Z,5.50
2022-11-17T09:47:21.042Z,5.43
2022-11-17T09:50:04.573Z,5.28
2022-11-17T09:52:34.967Z,5.03
2022-11-17T09:55:21.063Z,4.93
2022-11-17T09:57:54.940Z,4.60
2022-11-17T10:00:23.069Z,5.05
2022-11-17T10:02:50.896Z,4.75
2022-11-17T10:05:31.546Z,4.20
2022-11-17T10:08:07.314Z,4.15
2022-11-17T10:10:42.437Z,4.20
2022-11-17T10:13:22.116Z,4.50
2022-11-17T10:15:51.640Z,4.30
2022-11-17T10:18:18.348Z,4.40
2022-11-17T10:23:18.469Z,4.22
2022-11-17T10:25:48.321Z,3.58
2022-11-17T10:28:29.586Z,5.10
2022-11-17T10:31:05.099Z,4.13
2022-11-17T10:33:48.831Z,4.43
2022-11-17T10:36:19.347Z,3.60
2022-11-17T10:38:48.207Z,3.90
2022-11-17T10:41:42.238Z,4.20
2022-11-17T10:44:22.647Z,4.32
2022-11-17T10:47:06.644Z,4.28
2022-11-17T10:49:35.447Z,4.85
2022-11-17T10:52:09.060Z,4.35
2022-11-17T10:54:43.364Z,4.45
2022-11-17T10:57:19.729Z,4.57
2022-11-17T10:59:56.899Z,4.57
2022-11-17T11:02:37.247Z,4.88
2022-11-17T11:05:11.798Z,4.13
2022-11-17T11:07:39.006Z,4.28
2022-11-17T11:10:16.665Z,4.45
2022-11-17T11:12:47.930Z,3.90
2022-11-17T11:15:20.197Z,3.75
2022-11-17T11:17:47.163Z,4.20
2022-11-17T11:20:20.468Z,4.28
2022-11-17T11:23:03.368Z,3.97
2022-11-17T11:25:51.422Z,3.88
2022-11-17T11:28:44.323Z,3.72
2022-11-17T11:31:42.521Z,4.18
2022-11-17T11:34:33.389Z,4.22
2022-11-17T11:37:13.953Z,4.75
2022-11-17T11:39:43.146Z,3.92
2022-11-17T11:42:31.200Z,4.30
2022-11-17T11:45:11.966Z,4.32
2022-11-17T11:47:56.830Z,3.85
2022-11-17T11:50:26.943Z,3.95
2022-11-17T11:53:30.839Z,4.25
2022-11-17T11:56:30.724Z,3.90
2022-11-17T11:59:37.935Z,4.43
2022-11-17T12:02:14.105Z,3.85
2022-11-17T12:04:45.343Z,3.83
2022-11-17T12:07:34.849Z,3.83
2022-11-17T12:10:07.230Z,4.07
2022-11-17T12:12:39.452Z,3.95
2022-11-17T12:15:17.925Z,4.63
2022-11-17T12:18:03.978Z,3.72
2022-11-17T12:20:33.612Z,3.70
2022-11-17T12:23:14.912Z,4.10
2022-11-17T12:25:53.712Z,3.83
2022-11-17T12:28:38.148Z,4.00
2022-11-17T12:31:10.060Z,4.22
2022-11-17T12:33:52.155Z,3.78
2022-11-17T12:36:30.105Z,3.92
2022-11-17T12:38:59.658Z,3.55
2022-11-17T12:41:54.541Z,3.60
2022-11-17T12:44:46.297Z,4.65
2022-11-17T12:47:15.988Z,3.70
2022-11-17T12:49:53.754Z,4.05
2022-11-17T12:52:44.969Z,4.40
2022-11-17T12:55:25.521Z,3.80
2022-11-17T12:58:10.345Z,3.97
2022-11-17T13:01:00.286Z,4.18
2022-11-17T13:03:54.954Z,3.80
2022-11-17T13:06:35.356Z,3.70
2022-11-17T13:09:08.845Z,3.25
2022-11-17T13:14:19.346Z,4.22
2022-11-17T13:16:50.916Z,3.60
2022-11-17T13:19:36.405Z,4.43
2022-11-17T13:22:18.667Z,3.65
2022-11-17T13:24:49.829Z,4.03
2022-11-17T13:27:30.846Z,4.35
2022-11-17T13:30:21.014Z,4.43
2022-11-17T13:35:36.002Z,4.22
2022-11-17T13:38:04.514Z,4.47
2022-11-17T13:40:33.633Z,4.30
2022-11-17T13:43:01.970Z,4.45
2022-11-17T13:45:28.466Z,4.35
2022-11-17T13:47:55.002Z,4.20
2022-11-17T13:50:31.037Z,4.30
2022-11-17T13:53:03.068Z,5.05
2022-11-17T13:55:30.167Z,4.45
2022-11-17T13:58:24.467Z,5.05
2022-11-17T14:00:56.128Z,5.50
2022-11-17T14:03:37.598Z,4.53
2022-11-17T14:06:06.214Z,4.47
2022-11-17T14:08:34.592Z,3.90
2022-11-17T14:11:10.262Z,4.53
2022-11-17T14:13:41.432Z,4.45
2022-11-17T14:16:23.457Z,4.55
2022-11-17T14:18:59.584Z,4.40
2022-11-17T14:21:26.846Z,4.68
2022-11-17T14:24:05.928Z,6.03
2022-11-17T14:26:32.522Z,4.90
2022-11-17T14:29:02.340Z,5.32
2022-11-17T14:31:30.826Z,5.00
2022-11-17T14:33:58.013Z,4.93
2022-11-17T14:36:27.659Z,5.00
2022-11-17T14:38:54.490Z,5.60
2022-11-17T14:41:21.038Z,4.90
2022-11-17T14:43:47.866Z,4.68
2022-11-17T14:48:45.450Z,5.05
2022-11-17T14:51:12.031Z,4.97
2022-11-17T14:53:41.891Z,5.40
2022-11-17T14:56:09.658Z,5.07
2022-11-17T14:58:36.659Z,4.72
2022-11-17T15:01:12.214Z,5.35
2022-11-17T15:03:41.803Z,4.80
2022-11-17T15:06:12.962Z,5.00
2022-11-17T15:08:41.968Z,5.40
2022-11-17T15:11:15.683Z,4.90
2022-11-17T15:13:42.911Z,5.03
2022-11-17T15:16:12.368Z,5.47
2022-11-17T15:18:38.964Z,5.72
2022-11-17T15:21:07.851Z,5.53
2022-11-17T15:23:37.684Z,5.78
2022-11-17T15:26:15.704Z,5.55
2022-11-17T15:28:42.692Z,5.82
2022-11-17T15:31:10.609Z,5.32
2022-11-17T15:33:37.793Z,5.47
2022-11-17T15:36:05.709Z,6.20
2022-11-17T15:38:34.156Z,5.00
2022-11-17T15:41:00.860Z,5.63
2022-11-17T15:46:05.468Z,4.80
2022-11-17T15:48:33.056Z,5.80
2022-11-17T15:51:01.654Z,6.68
2022-11-17T15:53:33.057Z,5.70
2022-11-17T15:56:08.058Z,5.93
2022-11-17T15:58:35.813Z,5.57
2022-11-17T16:01:12.054Z,6.28
2022-11-17T16:03:40.062Z,5.97
2022-11-17T16:06:07.957Z,5.90
2022-11-17T16:08:36.243Z,5.20
2022-11-17T16:11:04.081Z,6.07
2022-11-17T16:13:31.109Z,6.28
2022-11-17T16:15:58.026Z,6.03
2022-11-17T16:18:25.150Z,6.72
2022-11-17T16:20:52.083Z,7.88
2022-11-17T16:23:18.853Z,6.40
2022-11-17T16:28:17.177Z,6.25
2022-11-17T16:30:43.865Z,5.75
2022-11-17T16:35:40.599Z,7.10
2022-11-17T16:38:08.550Z,7.43
2022-11-17T16:40:37.809Z,6.93
2022-11-17T16:43:04.625Z,6.07
2022-11-17T16:45:31.429Z,7.40
2022-11-17T16:50:27.798Z,5.85
2022-11-17T16:52:56.754Z,6.78
2022-11-17T16:55:23.404Z,5.90
2022-11-17T16:57:49.958Z,6.70
2022-11-17T17:00:18.041Z,5.05
2022-11-17T17:02:48.989Z,4.95
2022-11-17T17:05:16.203Z,5.05
2022-11-17T17:07:43.757Z,5.53
2022-11-17T17:10:10.568Z,6.20
2022-11-17T17:15:04.834Z,5.07
2022-11-17T17:17:31.415Z,5.30
2022-11-17T17:19:58.119Z,4.82
2022-11-17T17:24:51.403Z,4.32
2022-11-17T17:27:18.184Z,4.63
2022-11-17T17:38:38.064Z,5.20
2022-11-17T17:41:12.825Z,4.90
2022-11-17T17:43:40.638Z,5.07
2022-11-17T17:46:15.317Z,6.28
2022-11-17T17:48:44.441Z,4.85
2022-11-17T17:53:54.154Z,8.02
2022-11-17T17:56:23.758Z,9.82
2022-11-17T17:58:55.077Z,8.63
2022-11-17T18:01:27.650Z,6.18
2022-11-17T18:04:01.470Z,6.10
2022-11-17T18:06:28.612Z,5.60
2022-11-17T18:08:55.425Z,5.53
2022-11-17T18:11:22.522Z,5.80
2022-11-17T18:13:51.361Z,6.50
2022-11-17T18:16:26.036Z,5.45
2022-11-17T18:19:02.660Z,5.28
2022-11-17T18:21:29.912Z,4.88
2022-11-17T18:23:58.246Z,4.68
2022-11-17T18:26:29.430Z,4.85
2022-11-17T18:29:02.702Z,5.07
2022-11-17T18:31:32.299Z,5.38
2022-11-17T18:34:22.569Z,4.50
2022-11-17T18:36:53.677Z,4.10
2022-11-17T18:39:23.773Z,4.68
2022-11-17T18:41:50.539Z,4.75
2022-11-17T18:50:09.466Z,5.10
2022-11-17T18:52:42.209Z,5.00
2022-11-17T19:20:43.790Z,5.07
2022-11-17T19:23:51.496Z,4.38
2022-11-17T19:29:58.881Z,5.10
2022-11-17T19:35:22.847Z,4.80
2022-11-17T19:37:58.861Z,5.65
2022-11-17T19:43:57.192Z,5.47
2022-11-17T19:46:25.713Z,5.88
2022-11-17T19:49:04.256Z,5.30
2022-11-17T19:58:02.275Z,5.15
2022-11-17T20:00:30.230Z,6.00
2022-11-17T20:03:01.106Z,6.28
2022-11-17T20:05:42.770Z,5.43
2022-11-17T20:08:10.106Z,5.57
2022-11-17T20:10:37.363Z,6.30
2022-11-17T20:13:05.407Z,6.18
2022-11-17T20:15:34.926Z,6.25
2022-11-17T20:18:05.079Z,5.85
2022-11-17T20:20:35.767Z,5.57
2022-11-17T20:23:03.087Z,6.35
2022-11-17T20:25:34.154Z,6.78
2022-11-17T20:28:06.302Z,7.70
2022-11-17T20:30:33.719Z,8.00
2022-11-17T20:33:00.887Z,6.30
2022-11-17T20:35:36.260Z,6.78
2022-11-17T20:38:15.889Z,6.90
2022-11-17T20:43:30.208Z,7.78
2022-11-17T20:46:08.393Z,6.55
2022-11-17T20:51:38.315Z,6.40
2022-11-17T20:54:24.675Z,6.53
2022-11-17T20:56:51.987Z,5.45
2022-11-17T20:59:20.444Z,6.80
2022-11-17T21:01:49.831Z,5.82
2022-11-17T21:04:29.407Z,6.25
2022-11-17T21:06:59.377Z,5.82
2022-11-17T21:09:28.331Z,5.95
2022-11-17T21:11:58.789Z,6.13
2022-11-17T21:14:37.352Z,5.47
2022-11-17T21:17:29.798Z,5.35
2022-11-17T21:20:11.624Z,5.82
2022-11-17T21:22:38.328Z,5.65
2022-11-17T21:27:32.274Z,5.72
2022-11-17T21:30:00.733Z,5.50
2022-11-17T21:35:09.543Z,5.65
2022-11-17T21:37:36.605Z,6.22
2022-11-17T21:40:04.114Z,6.55
2022-11-17T21:42:33.060Z,6.28
2022-11-17T21:45:06.723Z,5.95
2022-11-17T21:47:34.597Z,6.45
2022-11-17T21:50:01.664Z,6.47
2022-11-17T21:52:29.268Z,7.55
2022-11-17T21:54:56.852Z,9.90
2022-11-17T21:57:27.249Z,7.30
2022-11-17T21:59:54.753Z,7.07
2022-11-17T22:02:22.342Z,7.40
2022-11-17T22:41:02.831Z,7.15
2022-11-17T22:43:29.706Z,7.93
2022-11-17T22:45:57.240Z,7.68
2022-11-17T22:48:24.017Z,8.90
2022-11-17T22:53:17.036Z,8.07
2022-11-17T22:55:43.674Z,10.15
2022-11-17T22:58:10.600Z,9.57
2022-11-17T23:00:37.471Z,10.43
2022-11-17T23:03:04.488Z,9.57
2022-11-17T23:05:31.633Z,9.23
2022-11-17T23:07:58.438Z,9.95
2022-11-17T23:12:52.942Z,8.50
2022-11-17T23:15:19.704Z,8.88
2022-11-17T23:20:12.965Z,7.93
2022-11-17T23:25:06.345Z,8.13
2022-11-17T23:27:32.870Z,8.65
2022-11-17T23:29:59.378Z,8.10
2022-11-17T23:32:25.947Z,8.95
2022-11-17T23:34:52.508Z,9.40
2022-11-17T23:37:19.516Z,8.63
2022-11-17T23:39:46.059Z,7.88
2022-11-17T23:42:15.392Z,8.43
2022-11-17T23:44:42.007Z,8.52
2022-11-17T23:47:08.586Z,7.70
2022-11-17T23:49:35.179Z,8.48
2022-11-17T23:52:01.863Z,7.57
2022-11-17T23:54:28.444Z,7.93
2022-11-17T23:56:54.971Z,7.20
2022-11-17T23:59:21.672Z,7.80
